Time;durP1;ratioP1;P1;durP2;ratioP2;P2;SDS_P1;SDS_P2;PMS_P1;PMS_P2;Temp;Humidity;BMP_temperature;BMP_pressure;BME280_temperature;BME280_humidity;BME280_pressure;Samples;Min_cycle;Max_cycle;Signal;HPM_P1;HPM_P2
2022/12/11 00:00:33;;;;;;;19.73;8.15;;;;;;;-0.28;100.00;97460.41;2595398;28;20072;-87
2022/12/11 00:02:08;;;;;;;15.07;6.57;;;;;;;-0.21;100.00;97461.28;2595999;28;20049;-83
2022/12/11 00:03:24;;;;;;;11.55;4.68;;;;;;;-0.27;100.00;97469.00;2595095;28;20887;-83
2022/12/11 00:04:40;;;;;;;17.88;7.43;;;;;;;0.00;100.00;97468.13;2595815;28;20053;-83
2022/12/11 00:05:55;;;;;;;18.00;7.72;;;;;;;-0.05;100.00;97470.72;2596248;28;20053;-82
2022/12/11 00:07:11;;;;;;;18.70;7.40;;;;;;;0.16;100.00;97466.38;2595838;28;20480;-82
2022/12/11 00:08:26;;;;;;;20.38;8.05;;;;;;;0.21;100.00;97463.78;2605583;28;20491;-84
2022/12/11 00:09:42;;;;;;;16.15;6.70;;;;;;;-0.05;100.00;97472.41;2601703;28;20080;-84
2022/12/11 00:10:57;;;;;;;16.38;7.57;;;;;;;0.21;100.00;97469.81;2595913;28;20057;-82
2022/12/11 00:12:13;;;;;;;17.73;8.23;;;;;;;0.08;100.00;97470.69;2595511;28;20051;-90
2022/12/11 00:13:29;;;;;;;17.42;7.22;;;;;;;0.20;100.00;97467.22;2596051;28;20441;-83
2022/12/11 00:14:44;;;;;;;17.65;7.70;;;;;;;0.20;100.00;97465.50;2596206;28;20050;-83
2022/12/11 00:16:00;;;;;;;16.02;7.55;;;;;;;0.17;100.00;97467.25;2595987;28;20136;-82
2022/12/11 00:17:16;;;;;;;18.00;7.68;;;;;;;0.17;100.00;97470.66;2595925;28;20077;-83
2022/12/11 00:18:31;;;;;;;16.95;7.25;;;;;;;0.26;100.00;97462.94;2595742;28;20052;-82
2022/12/11 00:19:47;;;;;;;16.17;7.13;;;;;;;0.31;100.00;97455.19;2600702;28;20124;-88
2022/12/11 00:21:05;;;;;;;19.08;7.88;;;;;;;0.25;100.00;97460.34;2597286;28;20053;-82
2022/12/11 00:22:21;;;;;;;17.45;8.38;;;;;;;0.28;100.00;97452.63;2595883;28;20049;-84
2022/12/11 00:23:37;;;;;;;18.30;7.35;;;;;;;0.09;100.00;97455.22;2595937;28;20140;-83
2022/12/11 00:24:52;;;;;;;14.90;7.13;;;;;;;0.07;100.00;97461.22;2595915;28;20049;-84
2022/12/11 00:26:13;;;;;;;17.20;7.88;;;;;;;0.09;100.00;97457.81;2595428;28;20077;-84
2022/12/11 00:27:28;;;;;;;16.42;7.30;;;;;;;0.02;100.00;97466.41;2595854;28;20057;-83
2022/12/11 00:28:44;;;;;;;15.95;6.53;;;;;;;0.05;100.00;97468.97;2595900;28;20058;-83
2022/12/11 00:30:00;;;;;;;19.25;8.30;;;;;;;-0.23;100.00;97469.00;2595804;28;20049;-83
2022/12/11 00:31:17;;;;;;;18.63;8.50;;;;;;;-0.19;100.00;97475.84;2595231;28;20064;-84
2022/12/11 00:32:33;;;;;;;20.88;8.00;;;;;;;-0.48;100.00;97474.16;2595737;28;20052;-89
2022/12/11 00:33:50;;;;;;;18.60;7.97;;;;;;;-0.26;100.00;97483.56;2595753;28;20076;-84
2022/12/11 00:35:05;;;;;;;18.95;8.35;;;;;;;-0.30;100.00;97485.28;2595613;28;20100;-83
2022/12/11 00:36:23;;;;;;;19.30;7.90;;;;;;;-0.21;100.00;97480.16;2595920;28;20113;-83
2022/12/11 00:37:39;;;;;;;17.55;7.80;;;;;;;-0.13;100.00;97479.31;2596155;28;20053;-85
2022/12/11 00:38:55;;;;;;;19.13;7.55;;;;;;;-0.18;100.00;97476.72;2595853;28;20053;-83
2022/12/11 00:40:10;;;;;;;19.88;8.38;;;;;;;-0.12;100.00;97473.28;2595691;28;20083;-82
2022/12/11 00:41:26;;;;;;;17.70;7.28;;;;;;;-0.11;100.00;97470.69;2595903;28;20566;-82
2022/12/11 00:42:41;;;;;;;19.95;8.50;;;;;;;-0.11;100.00;97472.44;2595706;28;20372;-82
2022/12/11 00:43:57;;;;;;;18.10;7.05;;;;;;;-0.06;100.00;97475.84;2595820;28;20470;-85
2022/12/11 00:45:13;;;;;;;16.35;7.93;;;;;;;-0.08;100.00;97475.00;2595799;28;20049;-83
2022/12/11 00:46:28;;;;;;;16.83;7.03;;;;;;;-0.32;100.00;97480.16;2595853;28;20087;-82
2022/12/11 00:47:44;;;;;;;20.50;8.65;;;;;;;-0.39;100.00;97480.16;2595692;28;20053;-88
2022/12/11 00:49:00;;;;;;;16.73;7.55;;;;;;;-0.25;100.00;97480.16;2595805;28;20077;-83
2022/12/11 00:50:15;;;;;;;17.20;7.68;;;;;;;-0.12;100.00;97486.16;2595569;28;20053;-82
2022/12/11 00:51:31;;;;;;;19.77;8.40;;;;;;;-0.06;100.00;97488.72;2595665;28;20050;-82
2022/12/11 00:52:46;;;;;;;16.15;6.63;;;;;;;-0.16;100.00;97485.28;2595649;28;20420;-83
2022/12/11 00:54:02;;;;;;;17.30;7.60;;;;;;;-0.31;100.00;97484.44;2595735;28;20083;-83
2022/12/11 00:55:18;;;;;;;17.40;8.05;;;;;;;-0.36;100.00;97480.16;2595531;28;20402;-86
2022/12/11 00:56:33;;;;;;;19.65;7.93;;;;;;;-0.50;100.00;97483.56;2595690;28;20107;-83
2022/12/11 00:57:52;;;;;;;17.55;7.38;;;;;;;-0.67;100.00;97487.84;2595449;28;20049;-83
2022/12/11 00:59:08;;;;;;;19.45;8.05;;;;;;;-0.93;100.00;97484.34;2595344;28;20077;-82
2022/12/11 01:00:23;;;;;;;18.30;7.03;;;;;;;-0.91;100.00;97484.38;2595407;28;20375;-83
2022/12/11 01:01:39;;;;;;;19.17;8.38;;;;;;;-0.96;100.00;97480.94;2595695;28;20049;-84
2022/12/11 01:02:54;;;;;;;21.40;9.10;;;;;;;-1.08;100.00;97486.88;2595934;28;20115;-84
2022/12/11 01:04:10;;;;;;;19.38;8.02;;;;;;;-1.37;100.00;97488.50;2595986;28;20057;-83
2022/12/11 01:05:26;;;;;;;17.95;7.47;;;;;;;-1.33;100.00;97482.53;2595590;28;20069;-83
2022/12/11 01:06:41;;;;;;;25.98;8.73;;;;;;;-1.33;100.00;97482.53;2595369;28;20555;-83
2022/12/11 01:07:57;;;;;;;22.85;9.20;;;;;;;-1.46;100.00;97483.31;2595820;28;20045;-83
2022/12/11 01:10:47;;;;;;;19.75;8.30;;;;;;;-1.83;100.00;97484.00;2595585;28;20550;-84
2022/12/11 01:12:03;;;;;;;22.48;8.75;;;;;;;-1.59;100.00;97488.41;2595632;28;20060;-84
2022/12/11 01:13:18;;;;;;;24.52;9.43;;;;;;;-1.45;100.00;97493.63;2595575;28;20488;-84
2022/12/11 01:14:34;;;;;;;22.10;8.35;;;;;;;-1.59;100.00;97500.38;2595445;28;20133;-84
2022/12/11 01:15:50;;;;;;;22.38;9.60;;;;;;;-1.46;100.00;97506.44;2595116;28;20060;-85
2022/12/11 01:17:05;;;;;;;19.27;8.23;;;;;;;-1.35;100.00;97503.91;2595693;28;20416;-85
2022/12/11 01:18:21;;;;;;;23.77;8.93;;;;;;;-1.28;100.00;97503.94;2595897;28;20053;-84
2022/12/11 01:19:37;;;;;;;22.10;8.90;;;;;;;-1.13;100.00;97507.41;2595327;28;20046;-83
2022/12/11 01:20:52;;;;;;;22.42;9.13;;;;;;;-0.89;100.00;97510.91;2595548;28;20104;-83
2022/12/11 01:22:07;;;;;;;19.40;7.15;;;;;;;-0.81;100.00;97510.94;2595643;28;20045;-83
2022/12/11 01:23:23;;;;;;;19.08;7.93;;;;;;;-0.75;100.00;97510.97;2595562;28;20060;-84
2022/12/11 01:24:39;;;;;;;23.58;9.30;;;;;;;-0.71;100.00;97505.81;2595609;28;20083;-81
2022/12/11 01:25:54;;;;;;;24.98;9.82;;;;;;;-0.91;100.00;97515.19;2595468;28;20058;-82
2022/12/11 01:27:10;;;;;;;20.48;8.75;;;;;;;-1.05;100.00;97510.00;2595249;28;20052;-84
2022/12/11 01:28:26;;;;;;;19.38;8.68;;;;;;;-1.31;100.00;97513.38;2595583;28;20053;-89
2022/12/11 01:29:41;;;;;;;18.75;8.10;;;;;;;-1.21;100.00;97514.25;2595403;28;20060;-85
2022/12/11 01:30:57;;;;;;;20.10;8.32;;;;;;;-1.48;100.00;97513.28;2595610;28;20061;-84
2022/12/11 01:32:12;;;;;;;23.75;9.13;;;;;;;-1.37;100.00;97518.44;2595600;28;20041;-83
2022/12/11 01:33:28;;;;;;;20.15;8.10;;;;;;;-1.46;100.00;97516.69;2595511;28;20056;-84
2022/12/11 01:34:44;;;;;;;24.40;8.35;;;;;;;-1.62;100.00;97515.75;2595429;28;20053;-84
2022/12/11 01:35:59;;;;;;;19.95;8.32;;;;;;;-1.64;100.00;97523.47;2595286;28;20100;-83
2022/12/11 01:37:15;;;;;;;19.42;8.68;;;;;;;-1.57;100.00;97516.66;2595503;28;20053;-90
2022/12/11 01:38:30;;;;;;;19.83;7.95;;;;;;;-1.36;100.00;97509.91;2595409;28;20053;-83
2022/12/11 01:39:46;;;;;;;20.40;8.38;;;;;;;-1.32;100.00;97509.91;2595365;28;20516;-83
2022/12/11 01:41:01;;;;;;;23.63;9.43;;;;;;;-1.28;100.00;97516.78;2595192;28;20753;-84
2022/12/11 01:42:19;;;;;;;22.88;8.52;;;;;;;-1.30;100.00;97515.91;2595067;28;20415;-87
2022/12/11 01:43:55;;;;;;;23.42;9.00;;;;;;;-1.34;100.00;97511.63;2595655;28;20540;-83
2022/12/11 01:45:20;;;;;;;20.35;8.77;;;;;;;-1.40;100.00;97521.00;2595682;28;20064;-84
2022/12/11 01:46:36;;;;;;;24.27;8.90;;;;;;;-1.39;100.00;97517.59;2597594;28;20127;-84
2022/12/11 01:47:56;;;;;;;20.30;8.55;;;;;;;-1.38;100.00;97519.31;2597068;28;20060;-86
2022/12/11 01:49:14;;;;;;;23.52;9.20;;;;;;;-1.38;100.00;97517.59;2597185;28;20893;-83
2022/12/11 01:50:33;;;;;;;21.70;8.88;;;;;;;-1.30;100.00;97522.78;2597210;28;20504;-83
2022/12/11 01:52:00;;;;;;;22.20;8.10;;;;;;;-1.15;100.00;97519.41;2597016;28;20065;-84
2022/12/11 01:53:30;;;;;;;21.95;8.13;;;;;;;-1.05;100.00;97516.03;2597674;28;20413;-84
2022/12/11 01:54:47;;;;;;;22.30;8.00;;;;;;;-0.99;100.00;97522.88;2597252;28;20140;-83
2022/12/11 01:56:03;;;;;;;22.13;8.18;;;;;;;-0.92;100.00;97518.63;2597105;28;20144;-83
2022/12/11 01:57:19;;;;;;;19.52;8.65;;;;;;;-0.87;100.00;97522.06;2597312;28;20079;-83
2022/12/11 01:58:43;;;;;;;19.45;7.43;;;;;;;-0.83;100.00;97520.38;2597094;28;20060;-83
2022/12/11 01:59:58;;;;;;;16.58;7.25;;;;;;;-0.76;100.00;97514.41;2596823;28;20046;-84
2022/12/11 02:01:26;;;;;;;19.13;7.63;;;;;;;-0.81;100.00;97511.81;2597105;28;20492;-84
2022/12/11 02:02:42;;;;;;;20.45;7.13;;;;;;;-0.87;100.00;97516.91;2597196;28;20068;-83
2022/12/11 02:03:58;;;;;;;18.65;7.82;;;;;;;-0.87;100.00;97516.91;2597007;28;20049;-82
2022/12/11 02:05:14;;;;;;;20.17;8.02;;;;;;;-0.73;100.00;97515.25;2597170;28;20053;-83
2022/12/11 02:06:42;;;;;;;17.30;7.82;;;;;;;-0.71;100.00;97512.69;2596586;28;20389;-83
2022/12/11 02:08:00;;;;;;;18.23;7.55;;;;;;;-0.59;100.00;97514.41;2595938;28;20119;-85
2022/12/11 02:09:20;;;;;;;16.08;7.55;;;;;;;-0.66;100.00;97510.13;2596551;28;20053;-83
2022/12/11 02:11:06;;;;;;;19.10;7.60;;;;;;;-0.84;100.00;97505.81;2597121;28;20049;-83
2022/12/11 02:12:41;;;;;;;19.05;7.53;;;;;;;-0.59;100.00;97514.41;2597036;28;20064;-82
2022/12/11 02:14:27;;;;;;;20.27;7.40;;;;;;;-0.65;100.00;97514.41;2597036;28;20045;-82
2022/12/11 02:16:10;;;;;;;14.93;6.70;;;;;;;-0.84;100.00;97513.50;2596058;28;20099;-83
2022/12/11 02:17:35;;;;;;;;;;;;;;;-0.98;100.00;97513.44;2597528;28;20132;-83
2022/12/11 02:19:24;;;;;;;18.67;6.47;;;;;;;-1.05;100.00;97508.31;2596969;28;19968;-84
2022/12/11 02:20:54;;;;;;;14.90;6.35;;;;;;;-1.11;100.00;97513.44;2596903;28;20046;-82
2022/12/11 02:22:17;;;;;;;14.50;6.18;;;;;;;-1.40;100.00;97506.44;2596718;28;20174;-84
2022/12/11 02:24:03;;;;;;;18.83;7.05;;;;;;;-1.06;100.00;97503.16;2597089;28;20045;-82
2022/12/11 02:25:33;;;;;;;17.80;7.25;;;;;;;-0.96;100.00;97501.50;2596998;28;20045;-84
2022/12/11 02:27:07;;;;;;;16.33;6.82;;;;;;;-1.14;100.00;97498.00;2596792;28;20080;-83
2022/12/11 02:28:31;;;;;;;20.63;7.35;;;;;;;-1.08;100.00;97498.03;2597013;28;20470;-84
2022/12/11 02:29:57;;;;;;;17.35;7.28;;;;;;;-1.21;100.00;97497.13;2597197;28;20049;-83
2022/12/11 02:31:36;;;;;;;16.73;6.97;;;;;;;-1.23;100.00;97500.56;2597093;28;20425;-85
2022/12/11 02:32:57;;;;;;;18.85;7.32;;;;;;;-1.25;100.00;97502.25;2595368;28;20136;-84
2022/12/11 02:34:27;;;;;;;15.53;7.47;;;;;;;-1.23;100.00;97497.97;2597167;28;20057;-84
2022/12/11 02:35:45;;;;;;;17.45;7.43;;;;;;;-1.06;100.00;97495.44;2597083;28;20046;-83
2022/12/11 02:37:08;;;;;;;17.88;7.57;;;;;;;-1.17;100.00;97492.84;2596615;28;20484;-82
2022/12/11 02:38:32;;;;;;;19.98;7.28;;;;;;;-1.11;100.00;97497.16;2596700;28;20061;-84
2022/12/11 02:39:51;;;;;;;19.70;7.43;;;;;;;-1.20;100.00;97498.00;2596902;28;20056;-83
2022/12/11 02:41:09;;;;;;;17.08;8.02;;;;;;;-1.17;100.00;97504.00;2596406;28;20103;-83
2022/12/11 02:42:29;;;;;;;18.38;7.55;;;;;;;-0.95;100.00;97500.63;2596674;28;20416;-84
2022/12/11 02:43:46;;;;;;;19.25;7.22;;;;;;;-0.95;100.00;97501.47;2596996;28;20132;-83
2022/12/11 02:45:06;;;;;;;19.17;7.70;;;;;;;-0.93;100.00;97502.34;2596798;28;20042;-82
2022/12/11 02:46:23;;;;;;;19.92;7.75;;;;;;;-1.12;100.00;97495.44;2596747;28;20069;-82
2022/12/11 02:47:40;;;;;;;18.83;7.65;;;;;;;-1.42;100.00;97503.03;2596985;28;20412;-82
2022/12/11 02:48:57;;;;;;;18.90;7.78;;;;;;;-1.48;100.00;97492.72;2596666;28;20172;-82
2022/12/11 02:50:18;;;;;;;17.05;7.28;;;;;;;-1.52;100.00;97496.16;2596668;28;20081;-82
2022/12/11 02:51:38;;;;;;;19.63;7.30;;;;;;;-1.64;100.00;97494.34;2596710;28;20053;-81
2022/12/11 02:52:55;;;;;;;17.85;7.90;;;;;;;-1.58;100.00;97492.69;2596901;28;20049;-82
2022/12/11 02:54:19;;;;;;;18.63;7.32;;;;;;;-1.57;100.00;97496.13;2596420;28;20085;-86
2022/12/11 02:55:36;;;;;;;21.92;8.18;;;;;;;-1.49;100.00;97497.00;2596750;28;20056;-86
2022/12/11 02:57:07;;;;;;;18.80;7.20;;;;;;;-1.37;100.00;97493.66;2595469;28;20069;-82
2022/12/11 02:58:28;;;;;;;16.08;7.22;;;;;;;-1.39;100.00;97489.34;2596753;28;20049;-82
2022/12/11 02:59:45;;;;;;;17.35;7.70;;;;;;;-1.34;100.00;97492.78;2596378;28;20062;-82
2022/12/11 03:01:01;;;;;;;16.08;6.35;;;;;;;-1.19;100.00;97490.31;2596436;28;20132;-80
2022/12/11 03:02:17;;;;;;;20.90;7.95;;;;;;;-1.14;100.00;97490.28;2596687;28;20484;-82
2022/12/11 03:03:33;;;;;;;18.95;7.30;;;;;;;-1.40;100.00;97492.78;2596670;28;20482;-87
2022/12/11 03:04:48;;;;;;;19.00;7.55;;;;;;;-1.29;100.00;97491.09;2596375;28;20076;-82
2022/12/11 03:06:04;;;;;;;19.13;7.57;;;;;;;-1.40;100.00;97491.03;2596439;28;20054;-82
2022/12/11 03:07:24;;;;;;;20.25;8.02;;;;;;;-1.29;100.00;97485.97;2596524;28;20144;-82
2022/12/11 03:08:40;;;;;;;16.25;7.03;;;;;;;-1.25;100.00;97495.41;2597012;28;20061;-81
2022/12/11 03:09:56;;;;;;;17.23;6.90;;;;;;;-1.23;100.00;97492.84;2596363;28;20566;-84
2022/12/11 03:11:12;;;;;;;17.73;7.53;;;;;;;-1.28;100.00;97496.22;2596632;28;20049;-82
2022/12/11 03:12:31;;;;;;;17.00;7.13;;;;;;;-1.60;100.00;97494.38;2596189;28;20046;-88
2022/12/11 03:13:47;;;;;;;18.08;8.40;;;;;;;-1.28;100.00;97496.22;2596584;28;20049;-82
2022/12/11 03:15:06;;;;;;;16.02;6.85;;;;;;;-1.47;100.00;97500.44;2596384;28;20060;-82
2022/12/11 03:16:29;;;;;;;19.38;7.80;;;;;;;-1.35;100.00;97503.91;2596588;28;20491;-83
2022/12/11 03:18:12;;;;;;;16.95;5.95;;;;;;;-1.26;100.00;97506.53;2596548;28;20216;-84
2022/12/11 03:19:46;;;;;;;14.27;5.50;;;;;;;-1.15;100.00;97511.69;2596552;28;20111;-84
2022/12/11 03:21:08;;;;;;;17.65;6.95;;;;;;;-1.05;100.00;97510.88;2596197;28;20045;-86
2022/12/11 03:22:39;;;;;;;15.75;6.57;;;;;;;-1.05;100.00;97510.00;2596165;28;20056;-84
2022/12/11 03:24:14;;;;;;;15.05;6.13;;;;;;;-1.13;100.00;97517.69;2596416;28;20859;-85
2022/12/11 03:25:52;;;;;;;19.45;7.30;;;;;;;-0.92;100.00;97519.47;2596305;28;20140;-84
2022/12/11 03:28:06;;;;;;;19.48;7.53;;;;;;;-0.97;100.00;97520.34;2596469;28;20092;-84
2022/12/11 03:29:30;;;;;;;16.15;6.18;;;;;;;-0.93;100.00;97516.91;2590655;28;20101;-83
2022/12/11 03:30:50;;;;;;;19.25;7.63;;;;;;;-1.04;100.00;97515.16;2595940;28;20045;-88
2022/12/11 03:32:14;;;;;;;20.92;7.28;;;;;;;-0.98;100.00;97518.59;2596148;28;20053;-83
2022/12/11 03:33:34;;;;;;;19.83;8.40;;;;;;;-1.06;100.00;97516.00;2596388;28;20484;-83
2022/12/11 03:34:56;;;;;;;18.83;7.90;;;;;;;-1.07;100.00;97515.16;2596504;28;20060;-84
2022/12/11 03:36:17;;;;;;;20.27;7.57;;;;;;;-1.04;100.00;97510.03;2596390;28;20080;-84
2022/12/11 03:37:36;;;;;;;17.27;6.75;;;;;;;-1.05;100.00;97508.31;2596306;28;20049;-85
2022/12/11 03:39:00;;;;;;;16.45;7.47;;;;;;;-1.02;100.00;97513.44;2595967;28;20080;-86
2022/12/11 03:40:19;;;;;;;17.95;7.55;;;;;;;-1.00;100.00;97516.88;2595945;28;20045;-86
2022/12/11 03:41:37;;;;;;;22.02;8.07;;;;;;;-0.99;100.00;97517.75;2596491;28;20077;-84
2022/12/11 03:42:55;;;;;;;18.48;8.27;;;;;;;-1.07;100.00;97517.72;2596319;28;20051;-89
2022/12/11 03:44:12;;;;;;;18.23;7.65;;;;;;;-1.02;100.00;97517.75;2595247;28;20100;-83
2022/12/11 03:45:29;;;;;;;16.58;7.50;;;;;;;-0.99;100.00;97517.75;2595433;28;20160;-84
2022/12/11 03:46:47;;;;;;;19.27;8.52;;;;;;;-1.10;100.00;97519.41;2596262;28;20484;-83
2022/12/11 03:48:03;;;;;;;23.20;8.52;;;;;;;-0.92;100.00;97516.06;2596199;28;20512;-83
2022/12/11 03:49:25;;;;;;;19.00;8.27;;;;;;;-0.89;100.00;97513.50;2596484;28;20041;-83
2022/12/11 03:50:41;;;;;;;18.77;7.75;;;;;;;-0.86;100.00;97510.94;2596072;28;20053;-85
2022/12/11 03:52:00;;;;;;;18.25;7.22;;;;;;;-0.97;100.00;97512.63;2596080;28;20128;-85
2022/12/11 03:53:17;;;;;;;20.00;7.55;;;;;;;-0.95;100.00;97513.50;2595955;28;20115;-84
2022/12/11 03:54:34;;;;;;;18.85;7.32;;;;;;;-0.94;100.00;97510.06;2596168;28;20050;-84
2022/12/11 03:55:50;;;;;;;18.83;8.32;;;;;;;-0.98;100.00;97511.75;2596109;28;20049;-85
2022/12/11 03:57:08;;;;;;;18.52;8.68;;;;;;;-0.93;100.00;97509.22;2596225;28;20069;-84
2022/12/11 03:58:24;;;;;;;21.35;9.57;;;;;;;-0.94;100.00;97508.34;2596031;28;20693;-84
2022/12/11 03:59:39;;;;;;;19.77;8.00;;;;;;;-0.96;100.00;97501.50;2596195;28;20106;-85
2022/12/11 04:00:55;;;;;;;21.27;8.40;;;;;;;-0.92;100.00;97503.22;2595884;28;20049;-84
2022/12/11 04:02:11;;;;;;;19.90;9.27;;;;;;;-0.91;100.00;97502.34;2596049;28;20102;-88
2022/12/11 04:03:27;;;;;;;19.20;8.25;;;;;;;-0.89;100.00;97504.09;2596065;28;20069;-84
2022/12/11 04:04:42;;;;;;;20.10;8.45;;;;;;;-0.75;100.00;97503.25;2596193;28;20061;-82
2022/12/11 04:05:58;;;;;;;19.58;7.80;;;;;;;-0.71;100.00;97505.81;2595781;28;20049;-88
2022/12/11 04:07:13;;;;;;;18.00;8.55;;;;;;;-0.68;100.00;97501.56;2596209;28;20053;-85
2022/12/11 04:08:29;;;;;;;19.25;8.48;;;;;;;-0.68;100.00;97504.97;2595225;28;20603;-84
2022/12/11 04:09:44;;;;;;;19.38;7.70;;;;;;;-0.72;100.00;97504.09;2596175;28;20509;-84
2022/12/11 04:12:56;;;;;;;18.88;8.18;;;;;;;-0.58;100.00;97498.13;2588809;28;20140;-83
2022/12/11 04:15:48;;;;;;;19.77;8.27;;;;;;;-0.65;100.00;97506.69;2587920;28;20054;-82
2022/12/11 04:17:04;;;;;;;17.73;8.25;;;;;;;-0.64;100.00;97504.13;2589402;28;20053;-82
2022/12/11 04:24:49;;;;;;;18.50;8.07;;;;;;;-0.88;100.00;97495.53;2595571;28;20060;-83
2022/12/11 04:26:06;;;;;;;21.63;8.65;;;;;;;-0.89;100.00;97505.78;2594710;28;20064;-83
2022/12/11 04:28:56;;;;;;;19.88;7.65;;;;;;;-0.82;100.00;97498.94;2596078;28;20559;-83
2022/12/11 04:30:16;;;;;;;21.42;8.50;;;;;;;-0.93;100.00;97501.50;2595910;28;20131;-84
2022/12/11 04:31:32;;;;;;;21.75;8.50;;;;;;;-0.82;100.00;97494.69;2595837;28;20420;-83
2022/12/11 04:32:48;;;;;;;20.38;9.40;;;;;;;-0.82;100.00;97494.69;2596124;28;20057;-84
2022/12/11 04:34:04;;;;;;;23.85;9.23;;;;;;;-1.03;100.00;97500.63;2595839;28;20719;-85
2022/12/11 04:35:20;;;;;;;21.65;7.93;;;;;;;-1.12;100.00;97505.72;2596295;28;20053;-83
2022/12/11 04:36:36;;;;;;;22.27;8.63;;;;;;;-1.01;100.00;97509.19;2595947;28;20071;-82
2022/12/11 04:37:52;;;;;;;19.90;8.27;;;;;;;-1.12;100.00;97514.25;2595979;28;20053;-87
2022/12/11 04:39:08;;;;;;;22.70;9.02;;;;;;;-0.98;100.00;97506.63;2605071;28;20424;-86
2022/12/11 04:40:24;;;;;;;21.30;8.63;;;;;;;-1.03;100.00;97506.59;2601356;28;20059;-84
2022/12/11 04:41:40;;;;;;;19.95;8.40;;;;;;;-0.91;100.00;97502.34;2595908;28;20049;-83
2022/12/11 04:42:55;;;;;;;20.10;8.55;;;;;;;-1.02;100.00;97504.91;2595750;28;20658;-81
2022/12/11 04:44:11;;;;;;;21.85;8.75;;;;;;;-0.94;100.00;97502.34;2595575;28;20107;-83
2022/12/11 04:45:27;;;;;;;24.33;9.07;;;;;;;-0.87;100.00;97492.09;2595929;28;20056;-84
2022/12/11 04:46:43;;;;;;;18.52;8.25;;;;;;;-0.92;100.00;97490.38;2595477;28;20068;-83
2022/12/11 04:47:58;;;;;;;21.25;8.85;;;;;;;-0.84;100.00;97496.38;2595368;28;20355;-84
2022/12/11 04:49:14;;;;;;;19.88;9.05;;;;;;;-0.73;100.00;97494.69;2595568;28;20424;-82
2022/12/11 04:50:30;;;;;;;19.52;9.30;;;;;;;-0.80;100.00;97492.97;2595328;28;20042;-82
2022/12/11 04:51:45;;;;;;;20.90;8.30;;;;;;;-0.89;100.00;97492.94;2595731;28;20045;-83
2022/12/11 04:53:01;;;;;;;18.70;8.00;;;;;;;-0.89;100.00;97492.94;2595793;28;20053;-82
2022/12/11 04:54:17;;;;;;;19.80;8.85;;;;;;;-1.03;100.00;97491.19;2595509;28;20194;-82
2022/12/11 04:55:32;;;;;;;21.17;9.02;;;;;;;-0.91;100.00;97492.94;2595831;28;20049;-83
2022/12/11 04:56:47;;;;;;;17.70;8.07;;;;;;;-1.01;100.00;97494.63;2595605;28;20077;-84
2022/12/11 04:58:03;;;;;;;22.42;9.18;;;;;;;-1.26;100.00;97496.25;2595596;28;20049;-84
2022/12/11 04:59:19;;;;;;;18.15;7.90;;;;;;;-1.25;100.00;97490.25;2595062;28;20072;-82
2022/12/11 05:00:34;;;;;;;20.10;8.93;;;;;;;-1.24;100.00;97491.13;2594267;28;20195;-87
2022/12/11 05:01:50;;;;;;;16.67;8.00;;;;;;;-1.16;100.00;97489.44;2595368;28;20069;-85
2022/12/11 05:03:05;;;;;;;17.20;8.43;;;;;;;-1.01;100.00;97489.47;2595274;28;20509;-83
2022/12/11 05:04:21;;;;;;;18.30;8.48;;;;;;;-1.00;100.00;97490.34;2595556;28;20058;-82
2022/12/11 05:05:36;;;;;;;21.27;8.82;;;;;;;-1.05;100.00;97487.75;2595491;28;20057;-82
2022/12/11 05:06:52;;;;;;;22.25;8.73;;;;;;;-1.07;100.00;97481.75;2595251;28;20523;-83
2022/12/11 05:08:07;;;;;;;18.42;7.60;;;;;;;-1.04;100.00;97484.34;2595589;28;20496;-83
2022/12/11 05:09:24;;;;;;;21.13;8.30;;;;;;;-1.07;100.00;97479.19;2594538;28;21151;-88
2022/12/11 05:10:40;;;;;;;19.67;8.40;;;;;;;-1.19;100.00;97485.16;2594870;28;20520;-83
2022/12/11 05:11:56;;;;;;;19.35;8.45;;;;;;;-1.28;100.00;97474.84;2595639;28;20128;-83
2022/12/11 05:13:11;;;;;;;20.95;8.32;;;;;;;-1.40;100.00;97473.06;2595274;28;20793;-82
2022/12/11 05:14:30;;;;;;;19.63;8.63;;;;;;;-1.46;100.00;97467.91;2595570;28;20064;-82
2022/12/11 05:15:46;;;;;;;19.52;8.43;;;;;;;-1.69;100.00;97473.78;2595528;28;20145;-82
2022/12/11 05:17:01;;;;;;;23.92;8.80;;;;;;;-1.66;100.00;97465.25;2595307;28;20335;-82
2022/12/11 05:18:17;;;;;;;20.05;8.63;;;;;;;-1.44;100.00;97471.34;2595349;28;20056;-83
2022/12/11 05:19:33;;;;;;;19.48;7.60;;;;;;;-1.56;100.00;97465.31;2594858;28;20056;-83
2022/12/11 05:21:03;;;;;;;19.13;8.45;;;;;;;-1.64;100.00;97464.44;2596537;28;20057;-83
2022/12/11 05:22:19;;;;;;;21.70;8.90;;;;;;;-1.65;100.00;97472.97;2597348;28;20091;-82
2022/12/11 05:23:35;;;;;;;20.25;8.20;;;;;;;-1.64;100.00;97468.69;2597128;28;20053;-90
2022/12/11 05:24:50;;;;;;;20.83;8.45;;;;;;;-1.66;100.00;97473.84;2597249;28;20451;-82
2022/12/11 05:26:10;;;;;;;23.02;8.80;;;;;;;-1.91;100.00;97471.13;2597273;28;20045;-88
2022/12/11 05:27:25;;;;;;;21.90;9.18;;;;;;;-1.90;100.00;97475.41;2597113;28;20099;-81
2022/12/11 05:28:42;;;;;;;21.23;9.00;;;;;;;-1.87;100.00;97467.72;2597281;28;20671;-82
2022/12/11 05:29:58;;;;;;;21.45;8.25;;;;;;;-1.90;100.00;97471.97;2597382;28;20907;-83
2022/12/11 05:31:16;;;;;;;23.80;9.55;;;;;;;-1.90;100.00;97469.41;2596839;28;20057;-81
2022/12/11 05:32:32;;;;;;;21.70;8.23;;;;;;;-1.96;100.00;97469.38;2597178;28;20053;-83
2022/12/11 05:33:49;;;;;;;21.60;9.27;;;;;;;-2.08;100.00;97475.28;2597187;28;20054;-85
2022/12/11 05:35:05;;;;;;;20.45;8.48;;;;;;;-2.28;100.00;97468.31;2597418;28;20049;-81
2022/12/11 05:36:26;;;;;;;21.20;8.27;;;;;;;-2.38;100.00;97463.94;2597357;28;20849;-83
2022/12/11 05:37:42;;;;;;;17.75;7.13;;;;;;;-2.54;100.00;97468.09;2597230;28;20060;-82
2022/12/11 05:38:58;;;;;;;20.73;8.60;;;;;;;-2.77;100.00;97471.31;2597095;28;20420;-82
2022/12/11 05:40:14;;;;;;;21.73;8.88;;;;;;;-2.79;100.00;97471.31;2596970;28;20262;-84
2022/12/11 05:41:31;;;;;;;21.60;8.73;;;;;;;-2.79;100.00;97471.31;2597199;28;20496;-82
2022/12/11 05:42:47;;;;;;;17.92;8.10;;;;;;;-2.87;100.00;97473.78;2597405;28;20056;-82
2022/12/11 05:44:02;;;;;;;21.88;8.25;;;;;;;-2.87;100.00;97476.34;2597130;28;20076;-82
2022/12/11 05:45:18;;;;;;;22.88;8.70;;;;;;;-2.91;100.00;97473.75;2597246;28;20140;-85
2022/12/11 05:46:34;;;;;;;19.95;8.18;;;;;;;-2.91;100.00;97473.75;2597777;28;20065;-83
2022/12/11 05:47:49;;;;;;;20.30;8.95;;;;;;;-3.03;100.00;97480.47;2597547;28;20675;-81
2022/12/11 05:49:05;;;;;;;20.30;8.30;;;;;;;-2.91;100.00;97476.31;2597465;28;20049;-84
2022/12/11 05:50:21;;;;;;;22.38;8.50;;;;;;;-2.96;100.00;97475.38;2597349;28;20512;-83
2022/12/11 05:51:38;;;;;;;25.13;8.55;;;;;;;-3.02;100.00;97479.63;2597584;28;20053;-86
2022/12/11 05:52:53;;;;;;;21.85;8.13;;;;;;;-3.05;100.00;97483.84;2597353;28;20542;-83
2022/12/11 05:54:09;;;;;;;23.15;8.82;;;;;;;-3.08;100.00;97478.69;2597538;28;20046;-84
2022/12/11 05:55:25;;;;;;;23.77;8.38;;;;;;;-3.08;100.00;97476.97;2597478;28;20054;-83
2022/12/11 05:56:41;;;;;;;23.90;9.80;;;;;;;-3.05;100.00;97479.59;2597279;28;20053;-83
2022/12/11 05:57:57;;;;;;;21.77;8.20;;;;;;;-3.07;100.00;97471.03;2597347;28;20075;-85
2022/12/11 05:59:12;;;;;;;24.23;9.02;;;;;;;-3.11;100.00;97471.81;2597287;28;20076;-84
2022/12/11 06:00:28;;;;;;;19.90;7.78;;;;;;;-3.09;100.00;97474.41;2596675;28;21165;-85
2022/12/11 06:01:43;;;;;;;28.67;8.93;;;;;;;-3.09;100.00;97471.84;2597430;28;20057;-86
2022/12/11 06:02:59;;;;;;;22.63;9.20;;;;;;;-3.15;100.00;97475.22;2596847;28;20483;-82
2022/12/11 06:04:15;;;;;;;21.02;8.05;;;;;;;-2.91;100.00;97472.03;2596970;28;20500;-82
2022/12/11 06:05:30;;;;;;;22.30;8.05;;;;;;;-2.88;100.00;97466.09;2597104;28;20528;-82
2022/12/11 06:06:46;;;;;;;26.33;8.95;;;;;;;-2.76;100.00;97476.47;2597379;28;20050;-82
2022/12/11 06:08:02;;;;;;;26.08;9.52;;;;;;;-2.65;100.00;97480.84;2597201;28;20314;-85
2022/12/11 06:09:17;;;;;;;23.95;8.43;;;;;;;-2.67;100.00;97474.81;2597045;28;20049;-83
2022/12/11 06:10:33;;;;;;;23.60;8.25;;;;;;;-2.68;100.00;97481.66;2596853;28;20076;-83
2022/12/11 06:11:49;;;;;;;20.80;8.00;;;;;;;-2.61;100.00;97480.00;2596911;28;20050;-82
2022/12/11 06:13:04;;;;;;;23.02;8.95;;;;;;;-2.65;100.00;97485.97;2596966;28;20122;-83
2022/12/11 06:14:20;;;;;;;22.45;8.60;;;;;;;-2.39;100.00;97482.72;2597275;28;20057;-82